createdAt,value
2022-10-29T10:50:32.831Z,36.92
2022-10-29T10:53:19.994Z,34.95
2022-10-29T10:55:57.975Z,37.13
2022-10-29T10:58:31.073Z,37.45
2022-10-29T11:01:05.062Z,32.53
2022-10-29T11:03:43.218Z,36.08
2022-10-29T11:06:35.607Z,31.90
2022-10-29T11:12:26.628Z,37.67
2022-10-29T11:15:26.124Z,30.77
2022-10-29T11:17:56.475Z,40.03
2022-10-29T11:20:27.669Z,29.92
2022-10-29T11:23:01.100Z,35.08
2022-10-29T11:25:57.039Z,34.53
2022-10-29T11:28:40.196Z,33.45
2022-10-29T11:31:20.403Z,37.45
2022-10-29T11:33:56.406Z,35.60
2022-10-29T11:36:27.066Z,33.00
2022-10-29T11:39:01.941Z,30.30
2022-10-29T11:41:57.393Z,30.15
2022-10-29T11:44:25.700Z,27.77
2022-10-29T11:47:30.140Z,25.73
2022-10-29T11:50:09.403Z,30.75
2022-10-29T11:52:48.958Z,30.23
2022-10-29T11:55:49.955Z,29.58
2022-10-29T11:58:41.014Z,28.92
2022-10-29T12:01:20.494Z,30.77
2022-10-29T12:04:24.117Z,27.42
2022-10-29T12:07:13.568Z,23.77
2022-10-29T12:10:05.422Z,26.92
2022-10-29T12:12:42.910Z,23.55
2022-10-29T12:15:36.251Z,22.05
2022-10-29T12:18:11.256Z,44.30
2022-10-29T12:20:49.540Z,42.05
2022-10-29T12:23:29.612Z,38.00
2022-10-29T12:26:38.419Z,21.50
2022-10-29T12:29:19.915Z,18.45
2022-10-29T12:32:00.773Z,19.25
2022-10-29T12:34:45.566Z,22.27
2022-10-29T12:37:21.850Z,21.73
2022-10-29T12:39:55.700Z,21.80
2022-10-29T12:42:25.787Z,21.48
2022-10-29T12:45:11.826Z,21.08
2022-10-29T12:47:54.284Z,19.42
2022-10-29T12:50:30.863Z,14.80
2022-10-29T12:53:18.133Z,18.83
2022-10-29T12:55:46.809Z,18.40
2022-10-29T12:58:53.118Z,18.80
2022-10-29T13:02:09.768Z,15.50
2022-10-29T13:04:34.046Z,14.13
2022-10-29T13:07:02.661Z,17.80
2022-10-29T13:09:36.079Z,15.85
2022-10-29T13:12:11.866Z,13.80
2022-10-29T13:14:45.066Z,21.13
2022-10-29T13:17:39.905Z,11.43
2022-10-29T13:20:27.887Z,14.77
2022-10-29T13:22:57.561Z,12.32
2022-10-29T13:25:33.959Z,16.17
2022-10-29T13:28:21.260Z,17.05
2022-10-29T13:31:03.528Z,14.15
2022-10-29T13:33:30.837Z,12.07
2022-10-29T13:35:59.072Z,10.95
2022-10-29T13:38:35.620Z,14.27
2022-10-29T13:41:09.564Z,12.60
2022-10-29T13:43:36.915Z,13.15
2022-10-29T13:46:31.961Z,12.07
2022-10-29T13:49:03.365Z,10.05
2022-10-29T13:51:44.030Z,11.32
2022-10-29T13:54:19.569Z,11.32
2022-10-29T13:56:57.534Z,8.63
2022-10-29T13:59:38.356Z,10.13
2022-10-29T14:02:20.253Z,12.43
2022-10-29T14:04:52.843Z,11.52
2022-10-29T14:07:26.383Z,9.98
2022-10-29T14:09:58.562Z,10.10
2022-10-29T14:12:31.440Z,12.48
2022-10-29T14:15:10.753Z,15.23
2022-10-29T14:17:41.734Z,13.38
2022-10-29T14:20:29.046Z,8.93
2022-10-29T14:22:56.925Z,10.63
2022-10-29T14:25:24.517Z,10.98
2022-10-29T14:28:10.312Z,8.95
2022-10-29T14:30:37.689Z,7.20
2022-10-29T14:33:25.432Z,7.90
2022-10-29T14:36:01.757Z,9.10
2022-10-29T14:38:41.907Z,9.07
2022-10-29T14:41:10.352Z,8.70
2022-10-29T14:43:39.090Z,8.20
2022-10-29T14:46:27.800Z,6.75
2022-10-29T14:49:00.661Z,10.68
2022-10-29T14:51:31.320Z,8.88
2022-10-29T14:54:02.236Z,6.63
2022-10-29T14:56:34.723Z,6.53
2022-10-29T14:59:10.322Z,7.95
2022-10-29T15:01:46.685Z,6.63
2022-10-29T15:04:24.331Z,12.32
2022-10-29T15:06:55.814Z,7.50
2022-10-29T15:09:28.119Z,8.88
2022-10-29T15:12:01.809Z,9.80
2022-10-29T15:14:47.830Z,7.18
2022-10-29T15:17:22.319Z,7.05
2022-10-29T15:19:55.237Z,9.82
2022-10-29T15:22:41.375Z,8.32
2022-10-29T15:25:20.248Z,6.60
2022-10-29T15:27:49.037Z,7.18
2022-10-29T15:30:22.099Z,8.15
2022-10-29T15:32:49.675Z,9.50
2022-10-29T15:35:21.623Z,7.20
2022-10-29T15:37:51.549Z,9.60
2022-10-29T15:40:22.857Z,7.95
2022-10-29T15:42:50.645Z,10.88
2022-10-29T15:45:21.657Z,10.50
2022-10-29T15:50:40.899Z,8.65
2022-10-29T15:53:16.837Z,9.57
2022-10-29T15:55:45.165Z,12.10
2022-10-29T15:58:16.023Z,8.85
2022-10-29T16:00:43.507Z,13.93
2022-10-29T16:03:20.032Z,9.32
2022-10-29T16:05:51.757Z,15.93
2022-10-29T16:08:39.512Z,9.82
2022-10-29T16:11:12.273Z,10.10
2022-10-29T16:13:39.730Z,10.50
2022-10-29T16:16:13.827Z,11.77
2022-10-29T16:18:41.182Z,14.13
2022-10-29T16:21:08.653Z,13.90
2022-10-29T16:23:38.367Z,14.07
2022-10-29T16:26:05.728Z,9.73
2022-10-29T16:28:33.112Z,10.82
2022-10-29T16:31:00.733Z,17.67
2022-10-29T16:33:28.053Z,14.00
2022-10-29T16:35:58.309Z,13.73
2022-10-29T16:38:25.682Z,12.93
2022-10-29T16:40:53.074Z,15.15
2022-10-29T16:43:20.373Z,17.05
2022-10-29T16:45:48.420Z,15.70
2022-10-29T16:48:15.746Z,14.80
2022-10-29T16:50:44.143Z,20.20
2022-10-29T16:53:11.538Z,15.30
2022-10-29T16:55:40.935Z,19.40
2022-10-29T16:58:19.013Z,15.73
2022-10-29T17:00:46.991Z,16.80
2022-10-29T17:03:16.339Z,21.00
2022-10-29T17:05:45.949Z,18.02
2022-10-29T17:08:13.559Z,18.50
2022-10-29T17:10:41.028Z,18.67
2022-10-29T17:13:11.210Z,15.75
2022-10-29T17:15:40.621Z,14.75
2022-10-29T17:18:08.253Z,21.08
2022-10-29T17:20:35.624Z,14.02
2022-10-29T17:23:02.952Z,21.50
2022-10-29T17:25:30.412Z,19.20
2022-10-29T17:27:58.189Z,21.30
2022-10-29T17:30:25.869Z,13.95
2022-10-29T17:32:53.217Z,21.20
2022-10-29T17:35:23.430Z,17.38
2022-10-29T17:37:50.756Z,18.65
2022-10-29T17:40:18.120Z,16.45
2022-10-29T17:42:45.586Z,19.40
2022-10-29T17:45:15.681Z,31.63
2022-10-29T17:47:42.991Z,21.83
2022-10-29T17:50:10.342Z,25.70
2022-10-29T17:52:37.693Z,20.25
2022-10-29T17:55:05.785Z,22.40
2022-10-29T17:57:33.185Z,22.60
2022-10-29T18:00:00.538Z,17.25
2022-10-29T18:02:28.003Z,19.63
2022-10-29T18:04:55.400Z,17.98
2022-10-29T18:07:25.811Z,28.08
2022-10-29T18:09:53.167Z,30.27
2022-10-29T18:12:20.492Z,39.25
2022-10-29T18:14:47.850Z,19.60
2022-10-29T18:17:15.191Z,19.98
2022-10-29T18:19:42.522Z,18.27
2022-10-29T18:22:10.104Z,18.70
2022-10-29T18:24:37.507Z,22.42
2022-10-29T18:27:04.836Z,18.77
2022-10-29T18:29:32.234Z,18.92
2022-10-29T18:31:59.655Z,21.50
2022-10-29T18:34:26.980Z,17.40
2022-10-29T18:36:54.378Z,19.27
2022-10-29T18:39:21.781Z,20.40
2022-10-29T18:41:49.154Z,23.83
2022-10-29T18:44:16.448Z,21.30
2022-10-29T18:46:43.743Z,26.25
2022-10-29T18:49:13.099Z,22.45
2022-10-29T18:51:40.656Z,22.50
2022-10-29T18:54:10.586Z,19.98
2022-10-29T18:56:38.358Z,20.85
2022-10-29T18:59:06.605Z,19.45
2022-10-29T19:01:36.807Z,18.17
2022-10-29T19:04:06.985Z,20.38
2022-10-29T19:06:36.347Z,17.27
2022-10-29T19:09:06.911Z,20.48
2022-10-29T19:11:34.817Z,18.42
2022-10-29T19:14:12.067Z,18.63
2022-10-29T19:16:39.419Z,17.42
2022-10-29T19:19:10.621Z,18.50
2022-10-29T19:21:38.878Z,23.60
2022-10-29T19:24:07.623Z,18.67
2022-10-29T19:26:36.235Z,18.65
2022-10-29T19:29:05.302Z,21.27
2022-10-29T19:31:34.155Z,18.15
2022-10-29T19:34:05.479Z,22.30
2022-10-29T19:36:34.536Z,21.15
2022-10-29T19:39:02.020Z,18.05
2022-10-29T19:41:30.564Z,21.63
2022-10-29T19:43:59.868Z,21.02
2022-10-29T19:46:27.621Z,25.27
2022-10-29T19:48:58.304Z,24.73
2022-10-29T19:51:26.146Z,22.67
2022-10-29T19:53:54.397Z,21.05
2022-10-29T19:56:21.871Z,25.88
2022-10-29T19:58:49.826Z,21.60
2022-10-29T20:01:18.615Z,19.88
2022-10-29T20:03:47.082Z,18.88
2022-10-29T20:06:15.364Z,24.00
2022-10-29T20:08:42.850Z,22.83
2022-10-29T20:11:10.488Z,21.27
2022-10-29T20:13:39.770Z,22.67
2022-10-29T20:16:13.357Z,27.10
2022-10-29T20:18:40.753Z,23.75
2022-10-29T20:21:08.551Z,24.60
2022-10-29T20:23:36.344Z,31.00
2022-10-29T20:26:04.682Z,30.20
2022-10-29T20:28:32.288Z,28.70
2022-10-29T20:31:17.996Z,29.45
2022-10-29T20:33:53.629Z,25.42
2022-10-29T20:36:22.043Z,21.73
2022-10-29T20:38:52.761Z,22.70
2022-10-29T20:41:22.350Z,25.23
2022-10-29T20:44:08.279Z,21.70
2022-10-29T20:46:40.849Z,22.88
2022-10-29T20:49:10.991Z,20.77
2022-10-29T20:51:38.285Z,24.92
2022-10-29T20:54:06.887Z,19.98
2022-10-29T20:56:34.229Z,30.13
2022-10-29T20:59:03.156Z,18.40
2022-10-29T21:01:31.033Z,21.50
2022-10-29T21:03:58.515Z,17.23
2022-10-29T21:06:26.063Z,15.20
2022-10-29T21:08:53.421Z,16.05
2022-10-29T21:11:22.507Z,20.88
2022-10-29T21:13:50.323Z,17.70
2022-10-29T21:16:17.608Z,18.52
2022-10-29T21:18:47.256Z,16.98
2022-10-29T21:21:15.042Z,16.38
2022-10-29T21:23:42.524Z,17.08
2022-10-29T21:26:15.071Z,13.88
2022-10-29T21:28:42.660Z,20.50
2022-10-29T21:31:10.327Z,19.65
2022-10-29T21:33:39.221Z,22.88
2022-10-29T21:36:07.119Z,17.67
2022-10-29T21:38:34.433Z,18.65
2022-10-29T21:41:04.852Z,15.20
2022-10-29T21:43:32.398Z,21.55
2022-10-29T21:46:00.121Z,19.55
2022-10-29T21:48:28.850Z,15.52
2022-10-29T21:51:05.278Z,20.40
2022-10-29T21:53:32.726Z,19.40
2022-10-29T21:56:02.991Z,17.27
2022-10-29T21:58:30.794Z,18.05
2022-10-29T22:01:09.524Z,17.98
2022-10-29T22:03:40.462Z,16.50
2022-10-29T22:06:11.797Z,19.55
2022-10-29T22:08:39.960Z,16.65
2022-10-29T22:11:07.845Z,19.05
2022-10-29T22:13:36.019Z,17.40
2022-10-29T22:16:04.887Z,15.73
2022-10-29T22:18:32.774Z,17.52
2022-10-29T22:21:21.635Z,16.77
2022-10-29T22:23:51.252Z,16.52
2022-10-29T22:26:21.213Z,11.75
2022-10-29T22:28:48.707Z,16.08
2022-10-29T22:31:17.762Z,18.17
2022-10-29T22:33:45.727Z,18.52
2022-10-29T22:36:18.356Z,19.25
2022-10-29T22:38:46.060Z,15.80
2022-10-29T22:41:17.886Z,19.15
2022-10-29T22:43:45.285Z,17.83
2022-10-29T22:46:14.795Z,17.95
2022-10-29T22:48:43.676Z,16.90
2022-10-29T22:51:21.698Z,12.60
2022-10-29T22:53:49.823Z,16.77
2022-10-29T22:56:20.945Z,19.15
2022-10-29T22:58:49.047Z,17.27
2022-10-29T23:01:22.013Z,15.23
2022-10-29T23:03:49.937Z,17.65
2022-10-29T23:06:22.692Z,14.60
2022-10-29T23:08:55.411Z,17.60
2022-10-29T23:11:27.513Z,16.92
2022-10-29T23:16:28.356Z,19.40
2022-10-29T23:18:59.559Z,16.33
2022-10-29T23:21:28.194Z,17.30
2022-10-29T23:23:56.459Z,19.80
2022-10-29T23:26:25.456Z,18.77
2022-10-29T23:28:52.846Z,19.15
2022-10-29T23:31:25.558Z,16.67
2022-10-29T23:33:55.192Z,16.58
2022-10-29T23:36:24.221Z,18.65
2022-10-29T23:39:02.644Z,17.02
2022-10-29T23:41:31.120Z,14.75
2022-10-29T23:43:58.708Z,15.00
2022-10-29T23:46:26.094Z,16.67
2022-10-29T23:48:53.801Z,15.13
2022-10-29T23:51:21.388Z,17.85
2022-10-29T23:53:51.672Z,17.42
2022-10-29T23:56:22.172Z,15.20
2022-10-29T23:58:49.505Z,13.38
